Time;durP1;ratioP1;P1;durP2;ratioP2;P2;SDS_P1;SDS_P2;PMS_P1;PMS_P2;Temp;Humidity;BMP_temperature;BMP_pressure;BME280_temperature;BME280_humidity;BME280_pressure;Samples;Min_cycle;Max_cycle;Signal;HPM_P1;HPM_P2
2021/09/20 00:00:34;;;;;;;17.80;14.60;;;;;;;10.57;93.89;98919.78;111914;1195;61170;-80
2021/09/20 00:03:03;;;;;;;18.20;14.20;;;;;;;10.55;93.83;98918.11;112219;1194;60976;-80
2021/09/20 00:05:30;;;;;;;18.00;15.20;;;;;;;10.55;93.88;98917.37;112209;1196;66098;-80
2021/09/20 00:07:57;;;;;;;20.30;15.50;;;;;;;10.56;93.93;98913.25;112228;1195;61126;-80
2021/09/20 00:10:23;;;;;;;18.00;15.00;;;;;;;10.53;93.78;98922.30;112211;1181;64479;-81
2021/09/20 00:12:50;;;;;;;20.50;15.60;;;;;;;10.52;93.80;98920.57;112211;1195;61081;-82
2021/09/20 00:15:17;;;;;;;18.30;14.60;;;;;;;10.52;93.92;98920.79;112306;1194;60946;-82
2021/09/20 00:17:44;;;;;;;17.00;14.90;;;;;;;10.48;93.84;98922.67;111971;1195;66015;-80
2021/09/20 00:20:14;;;;;;;18.50;14.40;;;;;;;10.44;93.81;98922.20;112200;1195;61061;-86
2021/09/20 00:22:42;;;;;;;20.20;14.90;;;;;;;10.45;94.00;98923.79;112336;1195;63998;-82
2021/09/20 00:25:09;;;;;;;17.80;14.40;;;;;;;10.45;93.97;98924.09;112245;1195;61757;-82
2021/09/20 00:27:36;;;;;;;20.90;15.70;;;;;;;10.46;94.12;98922.94;112193;1195;61059;-82
2021/09/20 00:30:06;;;;;;;19.80;16.00;;;;;;;10.48;93.95;98920.17;112170;1195;67138;-83
2021/09/20 00:32:33;;;;;;;20.90;17.50;;;;;;;10.49;94.02;98920.81;112266;1196;61065;-81
2021/09/20 00:35:00;;;;;;;21.50;16.60;;;;;;;10.49;94.14;98918.89;112208;1195;63672;-81
2021/09/20 00:37:27;;;;;;;19.40;15.50;;;;;;;10.49;94.10;98921.90;112214;1195;61019;-81
2021/09/20 00:39:53;;;;;;;19.40;15.30;;;;;;;10.46;94.04;98921.16;112230;1195;61051;-81
2021/09/20 00:42:20;;;;;;;16.90;14.50;;;;;;;10.44;94.11;98921.84;112200;1196;65051;-81
2021/09/20 00:44:47;;;;;;;20.30;14.90;;;;;;;10.45;94.26;98920.35;111936;1195;60915;-81
2021/09/20 00:47:13;;;;;;;18.10;14.60;;;;;;;10.49;94.41;98923.33;111942;1196;63715;-81
2021/09/20 00:49:40;;;;;;;18.30;14.30;;;;;;;10.52;94.39;98920.98;112277;1195;61144;-81
2021/09/20 00:52:07;;;;;;;17.30;13.70;;;;;;;10.50;94.26;98917.57;112249;1195;61007;-82
2021/09/20 00:54:33;;;;;;;21.70;14.80;;;;;;;10.49;94.17;98917.46;112249;1195;66670;-82
2021/09/20 00:57:01;;;;;;;18.30;15.10;;;;;;;10.51;94.15;98915.73;112228;1195;61037;-81
2021/09/20 00:59:29;;;;;;;21.00;15.50;;;;;;;10.50;94.11;98918.41;112277;1196;64013;-81
2021/09/20 01:01:55;;;;;;;20.30;15.10;;;;;;;10.52;94.23;98920.23;111955;1195;61086;-82
2021/09/20 01:04:22;;;;;;;19.40;15.30;;;;;;;10.51;94.00;98920.81;111929;1195;61030;-81
2021/09/20 01:06:49;;;;;;;20.10;15.00;;;;;;;10.47;93.94;98923.56;112191;1195;64683;-81
2021/09/20 01:09:16;;;;;;;21.30;15.20;;;;;;;10.46;94.14;98922.09;112250;1196;60988;-82
2021/09/20 01:11:44;;;;;;;18.90;14.70;;;;;;;10.47;94.32;98918.98;111941;1196;64068;-81
2021/09/20 01:14:11;;;;;;;15.90;14.10;;;;;;;10.48;94.22;98918.02;112225;1195;61141;-81
2021/09/20 01:16:37;;;;;;;17.40;14.30;;;;;;;10.49;94.33;98916.69;111951;1196;61034;-81
2021/09/20 01:19:04;;;;;;;17.70;15.00;;;;;;;10.54;94.35;98913.73;112241;1194;66973;-81
2021/09/20 01:21:31;;;;;;;20.90;15.50;;;;;;;10.58;94.46;98913.09;111933;1196;61064;-81
2021/09/20 01:23:57;;;;;;;18.30;15.30;;;;;;;10.59;94.23;98915.20;112201;1196;64070;-81
2021/09/20 01:26:24;;;;;;;18.10;16.20;;;;;;;10.55;94.07;98918.06;112205;1194;61090;-80
2021/09/20 01:28:50;;;;;;;16.60;14.80;;;;;;;10.54;94.18;98916.89;112252;1195;61039;-81
2021/09/20 01:31:17;;;;;;;16.10;13.80;;;;;;;10.53;94.08;98917.00;112220;1194;67042;-81
2021/09/20 01:33:44;;;;;;;22.10;15.20;;;;;;;10.52;94.11;98915.80;112232;1187;60992;-82
2021/09/20 01:36:11;;;;;;;16.80;14.00;;;;;;;10.53;94.24;98918.23;112236;1181;62694;-81
2021/09/20 01:38:38;;;;;;;18.00;14.00;;;;;;;10.55;94.18;98917.36;112238;1195;61052;-81
2021/09/20 01:41:06;;;;;;;16.00;14.20;;;;;;;10.57;94.04;98919.95;112232;1195;60981;-80
2021/09/20 01:43:32;;;;;;;17.20;14.40;;;;;;;10.57;94.08;98922.95;112272;1195;66720;-80
2021/09/20 01:45:59;;;;;;;16.70;14.90;;;;;;;10.56;94.05;98921.75;111816;1195;61167;-80
2021/09/20 01:48:26;;;;;;;17.60;14.70;;;;;;;10.53;93.90;98921.05;112180;1196;63666;-81
2021/09/20 01:50:52;;;;;;;16.40;14.70;;;;;;;10.51;93.83;98914.11;112224;1196;60988;-80
2021/09/20 01:53:19;;;;;;;16.30;14.50;;;;;;;10.48;93.71;98912.73;112222;1195;61068;-81
2021/09/20 01:55:46;;;;;;;16.60;14.70;;;;;;;10.46;93.89;98914.64;111917;1196;67002;-81
2021/09/20 01:58:12;;;;;;;17.20;14.60;;;;;;;10.45;93.93;98915.56;112203;1195;61074;-81
2021/09/20 02:00:43;;;;;;;17.60;14.80;;;;;;;10.47;93.95;98910.69;111957;1195;63978;-80
2021/09/20 02:03:11;;;;;;;15.50;13.50;;;;;;;10.49;94.11;98910.69;111949;1195;61022;-80
2021/09/20 02:05:38;;;;;;;17.20;13.40;;;;;;;10.51;93.97;98908.58;112182;1195;61005;-80
2021/09/20 02:08:05;;;;;;;18.30;14.10;;;;;;;10.54;94.04;98904.48;111948;1196;66016;-80
2021/09/20 02:10:31;;;;;;;16.20;14.40;;;;;;;10.58;94.07;98902.61;111993;1196;61139;-80
2021/09/20 02:12:58;;;;;;;16.80;14.50;;;;;;;10.60;93.99;98902.12;112229;1195;63635;-80
2021/09/20 02:15:25;;;;;;;18.00;16.10;;;;;;;10.59;93.86;98901.16;111914;1195;61056;-80
2021/09/20 02:17:52;;;;;;;18.20;14.40;;;;;;;10.58;93.92;98902.95;111972;1195;61005;-80
2021/09/20 02:20:18;;;;;;;18.90;14.30;;;;;;;10.57;93.69;98906.25;112229;1195;65858;-80
2021/09/20 02:22:45;;;;;;;19.60;13.90;;;;;;;10.52;93.64;98909.95;112248;1195;61090;-80
2021/09/20 02:25:13;;;;;;;17.10;13.30;;;;;;;10.49;93.72;98906.24;111943;1195;62669;-80
2021/09/20 02:27:40;;;;;;;17.10;13.60;;;;;;;10.49;93.77;98905.93;111977;1188;61039;-80
2021/09/20 02:30:07;;;;;;;16.60;13.20;;;;;;;10.47;93.76;98909.23;112242;1195;61131;-82
2021/09/20 02:32:35;;;;;;;16.90;12.90;;;;;;;10.45;93.82;98910.81;111942;1195;64661;-80
2021/09/20 02:35:03;;;;;;;15.10;12.90;;;;;;;10.46;93.76;98908.81;112306;1196;61045;-80
2021/09/20 02:37:30;;;;;;;15.60;12.70;;;;;;;10.47;93.86;98910.98;112249;1195;63636;-81
2021/09/20 02:39:57;;;;;;;14.50;12.40;;;;;;;10.48;93.81;98910.23;111985;1195;61052;-80
2021/09/20 02:42:23;;;;;;;14.80;13.30;;;;;;;10.50;93.99;98907.98;111916;1195;61199;-80
2021/09/20 02:44:50;;;;;;;15.90;14.20;;;;;;;10.49;93.87;98908.21;111925;1195;65703;-80
2021/09/20 02:47:17;;;;;;;14.40;12.30;;;;;;;10.49;93.85;98908.89;112202;1195;60976;-80
2021/09/20 02:49:44;;;;;;;13.60;12.30;;;;;;;10.48;93.74;98908.79;111929;1196;62643;-80
2021/09/20 02:52:11;;;;;;;13.90;12.50;;;;;;;10.47;93.77;98909.41;111959;1195;61041;-80
2021/09/20 02:54:38;;;;;;;15.70;12.70;;;;;;;10.46;93.83;98906.27;111969;1195;61222;-80
2021/09/20 02:57:04;;;;;;;14.00;12.50;;;;;;;10.45;93.87;98904.23;112213;1195;65922;-81
2021/09/20 02:59:31;;;;;;;16.20;13.30;;;;;;;10.45;93.96;98904.91;111963;1195;61042;-81
2021/09/20 03:01:57;;;;;;;14.90;13.50;;;;;;;10.46;93.92;98906.13;112187;1194;64030;-80
2021/09/20 03:04:24;;;;;;;15.60;13.80;;;;;;;10.45;94.10;98908.11;111943;1196;61022;-80
2021/09/20 03:06:51;;;;;;;17.30;14.80;;;;;;;10.46;94.15;98912.35;112235;1194;60997;-80
2021/09/20 03:09:17;;;;;;;16.90;15.10;;;;;;;10.45;94.11;98907.41;112264;1195;64739;-80
2021/09/20 03:11:44;;;;;;;16.00;14.40;;;;;;;10.44;94.16;98902.69;112230;1194;61035;-82
2021/09/20 03:14:10;;;;;;;19.10;16.10;;;;;;;10.44;94.24;98903.20;112182;1194;63701;-79
2021/09/20 03:16:37;;;;;;;18.00;14.90;;;;;;;10.42;94.25;98903.86;112217;1195;61065;-83
2021/09/20 03:19:04;;;;;;;17.70;14.80;;;;;;;10.38;94.27;98904.33;112042;1195;61072;-82
2021/09/20 03:21:30;;;;;;;17.80;15.20;;;;;;;10.38;94.36;98906.86;112210;1194;66003;-84
2021/09/20 03:23:57;;;;;;;20.40;16.10;;;;;;;10.39;94.43;98907.69;112180;1195;61034;-85
2021/09/20 03:26:24;;;;;;;19.50;15.80;;;;;;;10.38;94.52;98908.06;111893;1197;63739;-83
2021/09/20 03:28:50;;;;;;;18.90;16.50;;;;;;;10.34;94.54;98907.95;112220;1195;60952;-81
2021/09/20 03:31:17;;;;;;;19.90;17.30;;;;;;;10.31;94.72;98906.89;112215;1196;61059;-84
2021/09/20 03:33:44;;;;;;;20.70;17.30;;;;;;;10.30;94.77;98908.45;112182;1195;67027;-84
2021/09/20 03:36:10;;;;;;;20.40;16.70;;;;;;;10.26;94.76;98911.66;112212;1195;61003;-82
2021/09/20 03:38:38;;;;;;;20.60;17.10;;;;;;;10.25;94.76;98912.63;111931;1195;64069;-81
2021/09/20 03:41:04;;;;;;;20.90;17.80;;;;;;;10.24;94.65;98913.75;112244;1196;60998;-81
2021/09/20 03:43:31;;;;;;;18.90;16.30;;;;;;;10.24;94.83;98912.02;112188;1194;61064;-81
2021/09/20 03:45:58;;;;;;;19.10;16.00;;;;;;;10.25;94.94;98914.95;112183;1195;65825;-81
2021/09/20 03:48:24;;;;;;;18.10;15.60;;;;;;;10.26;95.02;98916.83;112236;1181;61091;-81
2021/09/20 03:50:51;;;;;;;18.00;16.10;;;;;;;10.25;94.91;98920.81;112219;1194;64026;-81
2021/09/20 03:53:18;;;;;;;18.20;15.00;;;;;;;10.25;94.90;98923.27;112231;1195;61056;-81
2021/09/20 03:55:44;;;;;;;16.00;14.00;;;;;;;10.27;94.98;98923.52;112154;1195;60998;-80
2021/09/20 03:58:11;;;;;;;16.70;15.00;;;;;;;10.27;94.97;98926.35;112226;1194;65942;-80
2021/09/20 04:00:38;;;;;;;17.70;14.50;;;;;;;10.27;95.05;98926.88;112204;1196;61094;-82
2021/09/20 04:03:05;;;;;;;16.50;14.60;;;;;;;10.27;95.00;98927.41;112248;1196;62360;-82
2021/09/20 04:05:32;;;;;;;16.80;15.00;;;;;;;10.29;95.16;98923.95;112225;1196;61071;-80
2021/09/20 04:07:58;;;;;;;16.90;13.70;;;;;;;10.32;95.29;98927.27;111971;1195;61052;-80
2021/09/20 04:10:25;;;;;;;17.70;15.50;;;;;;;10.36;95.22;98928.66;111976;1196;64647;-80
2021/09/20 04:12:51;;;;;;;18.20;14.70;;;;;;;10.37;95.22;98922.19;112233;1195;61059;-80
2021/09/20 04:15:18;;;;;;;19.40;16.20;;;;;;;10.41;95.38;98927.21;112256;1196;63985;-79
2021/09/20 04:17:45;;;;;;;17.30;14.20;;;;;;;10.46;95.25;98927.95;112178;1195;60988;-79
2021/09/20 04:20:13;;;;;;;14.90;13.30;;;;;;;10.47;95.12;98925.89;112224;1196;61494;-79
2021/09/20 04:22:41;;;;;;;14.50;13.00;;;;;;;10.46;95.01;98928.80;111823;1196;64665;-81
2021/09/20 04:25:09;;;;;;;16.30;14.20;;;;;;;10.43;94.85;98928.84;112231;1194;60940;-81
2021/09/20 04:27:36;;;;;;;17.10;15.30;;;;;;;10.39;94.73;98938.39;112210;1196;63741;-81
2021/09/20 04:30:04;;;;;;;14.90;13.20;;;;;;;10.34;94.80;98939.25;112221;1195;61078;-81
2021/09/20 04:32:32;;;;;;;18.80;13.90;;;;;;;10.31;94.87;98945.45;112164;1195;61087;-81
2021/09/20 04:34:59;;;;;;;17.30;13.70;;;;;;;10.30;94.93;98950.16;112197;1196;64655;-81
2021/09/20 04:37:25;;;;;;;15.50;13.70;;;;;;;10.28;94.86;98950.64;112239;1196;61041;-81
2021/09/20 04:39:52;;;;;;;14.90;13.10;;;;;;;10.27;94.98;98949.98;111950;1194;64002;-80
2021/09/20 04:42:19;;;;;;;18.10;14.30;;;;;;;10.26;94.98;98949.86;112076;1195;61015;-80
2021/09/20 04:44:45;;;;;;;15.90;13.10;;;;;;;10.24;94.96;98952.13;112199;1195;61062;-81
2021/09/20 04:47:12;;;;;;;15.00;13.00;;;;;;;10.22;94.93;98956.30;112005;1195;66059;-81
2021/09/20 04:49:39;;;;;;;17.70;13.80;;;;;;;10.21;95.12;98957.24;112201;1195;61058;-81
2021/09/20 04:52:06;;;;;;;16.20;13.00;;;;;;;10.21;95.17;98954.61;111983;1196;63991;-81
2021/09/20 04:54:32;;;;;;;16.30;13.80;;;;;;;10.22;95.11;98956.00;112217;1195;61048;-81
2021/09/20 04:56:59;;;;;;;14.70;13.00;;;;;;;10.25;95.22;98957.74;112190;1195;61043;-81
2021/09/20 04:59:26;;;;;;;13.90;12.20;;;;;;;10.28;95.05;98960.41;112209;1187;66134;-82
2021/09/20 05:01:52;;;;;;;14.90;12.90;;;;;;;10.31;95.18;98960.89;112264;1195;61033;-82
2021/09/20 05:04:19;;;;;;;15.70;12.90;;;;;;;10.33;94.91;98963.75;112210;1195;65018;-82
2021/09/20 05:06:46;;;;;;;13.80;11.90;;;;;;;10.34;94.79;98964.60;112237;1195;61064;-82
2021/09/20 05:09:13;;;;;;;16.70;12.40;;;;;;;10.36;94.82;98967.52;112248;1194;61110;-82
2021/09/20 05:11:39;;;;;;;14.10;12.00;;;;;;;10.38;94.82;98971.86;112218;1195;66069;-80
2021/09/20 05:14:06;;;;;;;15.60;13.40;;;;;;;10.40;94.89;98970.64;111992;1195;61106;-81
2021/09/20 05:16:33;;;;;;;14.80;12.80;;;;;;;10.40;94.67;98971.88;112205;1196;63948;-81
2021/09/20 05:19:00;;;;;;;18.60;12.20;;;;;;;10.40;94.59;98976.48;112224;1196;61012;-81
2021/09/20 05:21:27;;;;;;;16.30;12.70;;;;;;;10.40;94.63;98978.11;112206;1195;60991;-82
2021/09/20 05:23:54;;;;;;;14.70;11.70;;;;;;;10.40;94.53;98975.77;112214;1196;65899;-81
2021/09/20 05:26:21;;;;;;;15.70;12.10;;;;;;;10.41;94.52;98979.10;111947;1195;61388;-81
2021/09/20 05:28:47;;;;;;;13.30;11.90;;;;;;;10.42;94.55;98980.27;112225;1196;63692;-80
2021/09/20 05:31:14;;;;;;;13.20;10.90;;;;;;;10.45;94.42;98978.82;112225;1196;60986;-80
2021/09/20 05:33:41;;;;;;;12.00;10.20;;;;;;;10.47;94.40;98980.96;112022;1196;61522;-80
2021/09/20 05:36:08;;;;;;;12.20;10.20;;;;;;;10.52;94.26;98982.95;112197;1195;66143;-81
2021/09/20 05:38:35;;;;;;;11.20;10.00;;;;;;;10.56;94.11;98984.29;112036;1196;61065;-81
2021/09/20 05:41:03;;;;;;;11.50;10.30;;;;;;;10.61;93.95;98986.13;112193;1195;62735;-80
2021/09/20 05:43:29;;;;;;;14.30;9.80;;;;;;;10.63;93.63;98988.63;112002;1195;61019;-80
2021/09/20 05:45:56;;;;;;;10.90;9.20;;;;;;;10.67;93.84;98987.30;112253;1195;61058;-82
2021/09/20 05:48:23;;;;;;;12.20;9.10;;;;;;;10.70;93.64;98991.50;112007;1196;66986;-80
2021/09/20 05:50:50;;;;;;;11.50;10.30;;;;;;;10.72;93.33;98991.55;112242;1196;62645;-80
2021/09/20 05:53:16;;;;;;;10.40;9.30;;;;;;;10.76;93.29;98990.94;111983;1196;62328;-81
2021/09/20 05:55:43;;;;;;;10.90;8.80;;;;;;;10.80;93.10;98992.96;112258;1195;61033;-80
2021/09/20 05:58:10;;;;;;;9.90;8.90;;;;;;;10.82;92.72;98993.05;112184;1195;61033;-80
2021/09/20 06:00:37;;;;;;;11.20;8.70;;;;;;;10.84;92.64;98995.90;112201;1195;66836;-80
2021/09/20 06:03:04;;;;;;;10.60;9.50;;;;;;;10.90;92.79;98991.92;112230;1196;61036;-80
2021/09/20 06:05:30;;;;;;;9.00;7.90;;;;;;;10.95;92.64;98997.81;112238;1195;64049;-80
2021/09/20 06:07:57;;;;;;;10.00;7.90;;;;;;;10.97;92.46;98996.95;112223;1195;61081;-82
2021/09/20 06:10:24;;;;;;;8.60;7.70;;;;;;;11.01;92.27;98993.90;112241;1196;61116;-80
2021/09/20 06:12:50;;;;;;;10.40;7.40;;;;;;;11.03;91.92;98993.23;112251;1195;66023;-80
2021/09/20 06:15:17;;;;;;;10.40;7.70;;;;;;;11.08;91.86;98993.04;112241;1196;61058;-80
2021/09/20 06:17:44;;;;;;;8.80;7.80;;;;;;;11.14;91.40;98993.50;112199;1196;62774;-81
2021/09/20 06:20:11;;;;;;;11.50;7.70;;;;;;;11.22;91.55;98992.45;112244;1195;60997;-82
2021/09/20 06:22:39;;;;;;;8.50;7.00;;;;;;;11.32;91.31;98991.03;112289;1195;61082;-83
2021/09/20 06:25:07;;;;;;;11.60;7.00;;;;;;;11.41;90.74;98989.86;112109;1196;64681;-80
2021/09/20 06:27:35;;;;;;;8.40;6.90;;;;;;;11.52;90.56;98983.40;112047;1195;61136;-83
2021/09/20 06:30:05;;;;;;;8.70;6.70;;;;;;;11.63;90.34;98981.14;112266;1180;64940;-83
2021/09/20 06:32:32;;;;;;;8.10;6.80;;;;;;;11.73;89.60;98980.77;112306;1195;61079;-82
2021/09/20 06:34:59;;;;;;;8.50;6.60;;;;;;;11.81;89.37;98982.14;112305;1195;60981;-82
2021/09/20 06:37:26;;;;;;;6.90;6.20;;;;;;;11.88;89.02;98982.41;112236;1196;65936;-83
2021/09/20 06:39:52;;;;;;;9.60;7.10;;;;;;;11.95;88.85;98984.98;112234;1195;61081;-81
2021/09/20 06:42:19;;;;;;;8.70;6.80;;;;;;;11.96;88.17;98989.34;112213;1195;62343;-81
2021/09/20 06:44:50;;;;;;;8.20;6.20;;;;;;;12.01;88.46;98992.38;112206;1196;60997;-81
2021/09/20 06:47:18;;;;;;;7.80;7.10;;;;;;;12.04;88.45;98996.96;112289;1196;61068;-81
2021/09/20 06:49:45;;;;;;;7.60;6.80;;;;;;;11.89;87.76;98999.05;112259;1196;65899;-81
2021/09/20 06:52:12;;;;;;;10.80;7.20;;;;;;;11.73;87.90;99005.56;112201;1195;60965;-81
2021/09/20 06:54:39;;;;;;;7.30;6.50;;;;;;;11.64;88.36;99008.11;112195;1190;63988;-81
2021/09/20 06:57:05;;;;;;;8.60;6.40;;;;;;;11.59;87.95;99009.92;111760;1195;61143;-81
2021/09/20 06:59:32;;;;;;;6.30;5.70;;;;;;;11.52;88.25;99006.72;112247;1195;61040;-80
2021/09/20 07:01:59;;;;;;;6.70;6.00;;;;;;;11.53;88.45;99009.64;112279;1196;66018;-80
2021/09/20 07:04:26;;;;;;;8.10;7.00;;;;;;;11.58;88.44;99008.90;112283;1195;61094;-85
2021/09/20 07:07:02;;;;;;;7.10;6.40;;;;;;;11.68;87.93;99007.29;112748;1195;62628;-93
2021/09/20 07:09:29;;;;;;;7.80;5.70;;;;;;;11.84;87.69;99011.20;112160;1195;60966;-93
2021/09/20 07:14:59;;;;;;;5.50;4.40;;;;;;;12.06;86.95;99012.64;112324;1195;66093;-91
2021/09/20 07:17:26;;;;;;;10.00;5.30;;;;;;;12.12;86.60;99009.94;112266;1195;61062;-80
2021/09/20 07:19:53;;;;;;;6.90;4.60;;;;;;;12.16;86.12;99011.73;112235;1196;63998;-90
2021/09/20 07:22:20;;;;;;;6.50;5.40;;;;;;;12.23;85.67;99013.91;111970;1196;60959;-86
2021/09/20 07:24:47;;;;;;;7.50;6.30;;;;;;;12.22;84.83;99019.70;112277;1196;61420;-87
2021/09/20 07:27:14;;;;;;;5.50;5.00;;;;;;;12.12;84.91;99023.58;112238;1196;66030;-92
2021/09/20 07:29:40;;;;;;;5.00;4.20;;;;;;;12.02;84.84;99027.53;111886;1196;61181;-92
2021/09/20 07:32:07;;;;;;;5.80;4.10;;;;;;;11.97;84.78;99023.29;112357;1195;64033;-94
2021/09/20 07:34:34;;;;;;;5.00;4.00;;;;;;;11.97;84.01;99024.55;111862;1196;61417;-82
2021/09/20 07:37:01;;;;;;;4.50;4.10;;;;;;;11.99;84.06;99023.28;112182;1195;61065;-82
2021/09/20 07:39:27;;;;;;;5.40;4.30;;;;;;;12.08;83.48;99022.27;111950;1196;66061;-83
2021/09/20 07:41:54;;;;;;;5.80;4.30;;;;;;;12.19;83.08;99026.45;112071;1195;61142;-83
2021/09/20 07:44:21;;;;;;;6.00;4.20;;;;;;;12.28;82.66;99027.22;112231;1195;63979;-83
2021/09/20 07:46:48;;;;;;;5.60;3.90;;;;;;;12.42;82.72;99028.84;112237;1196;61031;-83
2021/09/20 07:49:14;;;;;;;4.70;4.10;;;;;;;12.57;81.77;99032.21;112230;1195;61014;-83
2021/09/20 07:51:41;;;;;;;4.60;4.20;;;;;;;12.67;81.77;99038.05;112231;1195;66017;-83
2021/09/20 07:54:07;;;;;;;4.80;4.20;;;;;;;12.80;81.01;99039.56;112295;1196;61158;-83
2021/09/20 07:56:34;;;;;;;5.10;3.80;;;;;;;12.88;80.73;99044.18;112239;1196;63632;-83
2021/09/20 07:59:02;;;;;;;5.40;4.00;;;;;;;13.00;80.89;99047.19;112250;1195;61049;-83
2021/09/20 08:01:30;;;;;;;7.90;4.80;;;;;;;13.07;79.76;99045.24;112190;1195;61026;-82
2021/09/20 08:03:57;;;;;;;3.70;3.40;;;;;;;13.07;79.60;99045.75;112122;1195;66077;-81
2021/09/20 08:06:24;;;;;;;3.40;3.00;;;;;;;13.04;78.62;99048.66;112274;1196;61062;-81
2021/09/20 08:08:51;;;;;;;3.40;2.70;;;;;;;13.02;78.56;99056.34;112225;1186;63743;-81
2021/09/20 08:11:18;;;;;;;3.10;2.70;;;;;;;12.99;78.32;99054.78;112187;1196;61180;-81
2021/09/20 08:13:44;;;;;;;3.50;3.00;;;;;;;13.05;77.98;99055.05;112209;1195;61067;-82
2021/09/20 08:16:13;;;;;;;4.50;2.90;;;;;;;13.06;77.76;99056.20;112303;1196;67012;-89
2021/09/20 08:18:40;;;;;;;4.50;2.70;;;;;;;13.00;78.10;99058.27;112273;1194;60960;-78
2021/09/20 08:21:07;;;;;;;4.30;3.60;;;;;;;12.87;78.42;99062.98;112134;1196;63988;-78
2021/09/20 08:23:35;;;;;;;4.60;4.20;;;;;;;12.67;77.92;99059.99;111983;1195;61135;-78
2021/09/20 08:26:05;;;;;;;4.00;3.10;;;;;;;12.49;78.21;99067.58;112043;1196;60994;-78
2021/09/20 08:28:33;;;;;;;4.80;3.30;;;;;;;12.36;77.76;99072.09;112187;1195;64677;-78
2021/09/20 08:31:00;;;;;;;3.90;3.00;;;;;;;12.27;78.03;99071.30;112208;1196;61011;-78
2021/09/20 08:33:29;;;;;;;5.80;4.20;;;;;;;12.32;77.75;99069.17;112139;1195;64138;-77
2021/09/20 08:35:56;;;;;;;5.90;4.70;;;;;;;12.48;77.21;99071.02;112224;1195;61036;-78
2021/09/20 08:38:23;;;;;;;5.00;4.20;;;;;;;12.66;75.83;99071.64;112209;1195;61171;-78
2021/09/20 08:40:51;;;;;;;2.80;2.20;;;;;;;12.80;75.08;99071.98;112009;1195;66055;-78
2021/09/20 08:43:18;;;;;;;5.10;3.50;;;;;;;12.96;75.13;99070.84;112163;1195;61042;-78
2021/09/20 08:45:45;;;;;;;3.10;2.60;;;;;;;13.09;74.33;99074.64;112160;1195;63981;-78
2021/09/20 08:48:14;;;;;;;5.50;2.60;;;;;;;13.15;74.40;99076.35;112156;1195;61206;-78
2021/09/20 08:50:42;;;;;;;5.10;2.70;;;;;;;13.19;74.08;99077.12;112181;1195;61014;-78
2021/09/20 08:53:09;;;;;;;2.60;2.30;;;;;;;13.21;73.63;99078.02;112205;1196;64463;-78
2021/09/20 08:55:37;;;;;;;3.50;2.80;;;;;;;13.23;73.52;99079.66;112161;1195;61042;-77
2021/09/20 08:58:05;;;;;;;3.30;2.70;;;;;;;13.29;72.08;99083.52;112128;1196;64019;-78
2021/09/20 09:00:32;;;;;;;3.20;2.80;;;;;;;13.29;70.94;99086.23;112132;1195;61055;-78
2021/09/20 09:03:02;;;;;;;4.50;2.50;;;;;;;13.28;71.19;99089.30;112152;1195;61068;-78
2021/09/20 09:05:31;;;;;;;3.20;2.40;;;;;;;13.37;72.19;99089.48;112137;1195;64734;-78
2021/09/20 09:08:01;;;;;;;2.80;2.20;;;;;;;13.54;72.29;99091.39;112187;1196;61067;-78
2021/09/20 09:10:31;;;;;;;2.40;2.10;;;;;;;13.63;71.24;99095.52;112181;1194;64034;-78
2021/09/20 09:13:01;;;;;;;3.40;2.70;;;;;;;13.69;70.73;99094.16;112194;1195;61001;-78
2021/09/20 09:15:28;;;;;;;2.30;2.10;;;;;;;13.73;70.83;99094.78;112188;1185;61090;-78
2021/09/20 09:17:56;;;;;;;2.60;2.00;;;;;;;13.86;70.20;99094.30;112172;1195;66044;-78
2021/09/20 09:20:27;;;;;;;2.90;2.00;;;;;;;13.93;68.98;99093.87;112222;1195;61068;-78
2021/09/20 09:22:56;;;;;;;3.10;1.80;;;;;;;13.98;68.78;99095.64;112126;1196;64657;-78
2021/09/20 09:25:38;;;;;;;2.50;2.30;;;;;;;14.07;69.03;99100.64;112153;1195;61075;-81
2021/09/20 09:28:25;;;;;;;2.60;2.40;;;;;;;14.16;69.07;99097.92;112292;1194;61027;-79
2021/09/20 09:31:04;;;;;;;2.00;1.80;;;;;;;14.24;69.15;99098.03;112050;1196;64677;-79
2021/09/20 09:33:40;;;;;;;2.70;2.30;;;;;;;14.20;68.76;99102.31;112195;1196;61135;-82
2021/09/20 09:36:07;;;;;;;5.00;2.20;;;;;;;14.10;67.80;99104.89;112155;1195;62645;-80
2021/09/20 09:38:34;;;;;;;3.30;2.50;;;;;;;13.91;67.54;99109.02;112187;1195;60982;-77
2021/09/20 09:41:04;;;;;;;2.70;2.50;;;;;;;13.70;67.77;99106.75;112169;1196;60998;-80
2021/09/20 09:43:37;;;;;;;3.20;2.90;;;;;;;13.50;68.22;99113.29;112191;1195;64600;-80
2021/09/20 09:46:24;;;;;;;3.20;2.70;;;;;;;13.40;68.88;99115.87;112151;1196;61084;-80
2021/09/20 09:48:54;;;;;;;4.00;2.60;;;;;;;13.47;68.80;99114.27;112200;1195;62789;-77
2021/09/20 09:51:21;;;;;;;3.10;2.40;;;;;;;13.50;67.40;99117.23;112238;1196;61036;-78
2021/09/20 09:53:49;;;;;;;3.40;2.60;;;;;;;13.53;67.86;99114.50;112175;1195;60989;-78
2021/09/20 09:56:17;;;;;;;3.30;2.50;;;;;;;13.72;68.50;99117.19;112194;1196;64429;-78
2021/09/20 09:58:56;;;;;;;3.60;2.30;;;;;;;13.89;66.93;99114.39;112185;1194;60960;-78
2021/09/20 10:01:37;;;;;;;2.40;2.20;;;;;;;13.96;65.90;99116.31;112160;1196;62694;-78
2021/09/20 10:04:20;;;;;;;3.10;2.00;;;;;;;14.09;65.77;99113.92;112186;1196;60985;-79
2021/09/20 10:06:48;;;;;;;2.40;2.20;;;;;;;14.19;65.92;99110.06;112193;1195;61164;-78
2021/09/20 10:09:27;;;;;;;2.80;2.30;;;;;;;14.19;64.31;99109.85;112217;1196;64774;-78
2021/09/20 10:11:57;;;;;;;3.60;2.00;;;;;;;14.13;65.30;99112.84;112186;1196;60991;-78
2021/09/20 10:14:25;;;;;;;;;;;;;;;14.17;64.85;99113.09;112158;1194;64245;-78
2021/09/20 10:16:55;;;;;;;2.20;1.70;;;;;;;14.31;64.55;99108.02;112183;1195;61056;-78
2021/09/20 10:19:22;;;;;;;4.90;2.30;;;;;;;14.46;64.48;99107.38;112165;1194;61116;-78
2021/09/20 10:21:50;;;;;;;3.00;2.20;;;;;;;14.80;64.27;99108.16;112209;1195;67008;-78
2021/09/20 10:24:17;;;;;;;2.10;2.00;;;;;;;14.93;63.36;99106.38;112182;1194;61049;-78
2021/09/20 10:26:46;;;;;;;2.80;2.50;;;;;;;14.72;63.41;99106.13;112145;1196;64038;-78
2021/09/20 10:29:16;;;;;;;4.00;2.40;;;;;;;14.48;64.10;99108.43;112159;1195;61157;-78
2021/09/20 10:31:46;;;;;;;3.60;2.50;;;;;;;14.27;63.72;99120.44;112094;1196;61027;-78
2021/09/20 10:34:21;;;;;;;3.50;2.40;;;;;;;14.00;63.42;99121.73;112237;1196;66134;-78
2021/09/20 10:36:51;;;;;;;2.50;2.20;;;;;;;13.77;64.08;99120.33;112163;1196;61053;-78
2021/09/20 10:39:38;;;;;;;2.70;2.20;;;;;;;13.70;64.22;99119.13;112146;1195;64152;-78
2021/09/20 10:42:05;;;;;;;3.40;2.20;;;;;;;13.68;63.71;99120.48;112158;1196;61167;-78
2021/09/20 10:44:39;;;;;;;2.40;2.00;;;;;;;13.76;64.13;99120.20;112166;1186;61045;-78
2021/09/20 10:47:14;;;;;;;1.90;1.70;;;;;;;13.96;63.51;99122.97;112017;1196;65677;-78
2021/09/20 10:49:51;;;;;;;3.30;2.10;;;;;;;14.10;62.66;99121.71;112210;1196;61016;-78
2021/09/20 10:52:18;;;;;;;2.70;2.10;;;;;;;14.17;62.31;99125.90;112027;1196;64006;-78
2021/09/20 10:55:10;;;;;;;2.20;2.00;;;;;;;14.22;61.60;99122.89;112167;1195;61043;-78
2021/09/20 10:57:37;;;;;;;1.90;1.50;;;;;;;14.22;61.46;99122.81;112188;1195;60915;-77
2021/09/20 11:00:24;;;;;;;2.50;1.80;;;;;;;14.20;61.47;99124.80;112155;1194;66121;-79
2021/09/20 11:02:51;;;;;;;3.10;1.90;;;;;;;14.07;61.49;99125.68;112141;1195;61036;-78
2021/09/20 11:05:26;;;;;;;2.90;2.10;;;;;;;13.93;62.27;99132.15;112171;1196;63983;-78
2021/09/20 11:07:53;;;;;;;3.90;3.10;;;;;;;13.79;62.17;99134.66;112214;1196;61028;-78
2021/09/20 11:10:31;;;;;;;2.30;2.10;;;;;;;13.69;61.99;99130.98;112194;1196;61042;-78
2021/09/20 11:13:06;;;;;;;6.70;4.00;;;;;;;13.66;62.41;99131.59;112227;1196;65999;-78
2021/09/20 11:15:52;;;;;;;4.50;2.50;;;;;;;13.69;62.17;99136.14;112223;1195;61041;-78
2021/09/20 11:18:32;;;;;;;5.60;3.20;;;;;;;13.67;61.79;99137.05;112156;1195;62580;-78
2021/09/20 11:21:07;;;;;;;3.70;3.40;;;;;;;13.63;62.20;99139.05;112209;1186;61030;-78
2021/09/20 11:23:36;;;;;;;3.10;2.70;;;;;;;13.64;62.60;99136.19;112238;1195;61093;-78